createdAt,value
2019-02-07T00:01:45.768Z,12.70
2019-02-07T00:04:15.478Z,14.40
2019-02-07T00:06:44.854Z,13.50
2019-02-07T00:09:14.432Z,14.17
2019-02-07T00:11:43.938Z,13.10
2019-02-07T00:14:13.425Z,14.47
2019-02-07T00:16:42.796Z,12.57
2019-02-07T00:19:12.306Z,12.13
2019-02-07T00:21:41.804Z,10.87
2019-02-07T00:24:11.382Z,11.87
2019-02-07T00:26:41.298Z,11.40
2019-02-07T00:29:10.956Z,11.80
2019-02-07T00:31:40.457Z,12.53
2019-02-07T00:34:09.951Z,14.40
2019-02-07T00:36:39.353Z,13.23
2019-02-07T00:39:09.532Z,13.37
2019-02-07T00:41:39.328Z,15.13
2019-02-07T00:44:08.806Z,14.80
2019-02-07T00:46:38.282Z,14.83
2019-02-07T00:49:07.876Z,15.53
2019-02-07T00:51:37.351Z,15.87
2019-02-07T00:54:06.923Z,16.13
2019-02-07T00:56:39.504Z,15.20
2019-02-07T00:59:07.719Z,16.37
2019-02-07T01:01:37.093Z,14.60
2019-02-07T01:04:06.610Z,16.13
2019-02-07T01:06:36.076Z,14.77
2019-02-07T01:09:08.026Z,14.90
2019-02-07T01:11:37.428Z,15.50
2019-02-07T01:14:07.034Z,15.30
2019-02-07T01:16:36.582Z,16.23
2019-02-07T01:19:05.983Z,14.90
2019-02-07T01:21:35.361Z,15.57
2019-02-07T01:24:05.221Z,15.67
2019-02-07T01:26:34.739Z,16.17
2019-02-07T01:29:04.126Z,15.80
2019-02-07T01:31:33.489Z,15.80
2019-02-07T01:34:03.000Z,15.97
2019-02-07T01:36:32.460Z,15.63
2019-02-07T01:39:02.205Z,15.27
2019-02-07T01:41:31.891Z,16.00
2019-02-07T01:44:01.372Z,16.90
2019-02-07T01:46:30.867Z,16.67
2019-02-07T01:49:00.280Z,17.87
2019-02-07T01:51:29.691Z,16.67
2019-02-07T01:53:59.472Z,17.90
2019-02-07T01:56:28.997Z,16.57
2019-02-07T01:58:58.371Z,18.37
2019-02-07T02:01:27.898Z,17.47
2019-02-07T02:03:57.542Z,17.60
2019-02-07T02:06:26.923Z,14.83
2019-02-07T02:08:56.780Z,15.20
2019-02-07T02:11:26.481Z,14.27
2019-02-07T02:13:55.864Z,14.77
2019-02-07T02:16:25.259Z,12.60
2019-02-07T02:18:54.793Z,12.40
2019-02-07T02:21:24.274Z,10.10
2019-02-07T02:23:53.746Z,8.20
2019-02-07T02:26:23.174Z,7.47
2019-02-07T02:28:52.653Z,7.33
2019-02-07T02:31:22.115Z,6.93
2019-02-07T02:33:51.717Z,6.23
2019-02-07T02:36:21.087Z,5.10
2019-02-07T02:38:50.836Z,5.33
2019-02-07T02:41:20.250Z,4.80
2019-02-07T02:43:50.072Z,5.23
2019-02-07T02:46:19.646Z,6.00
2019-02-07T02:48:49.258Z,4.80
2019-02-07T02:51:18.615Z,5.80
2019-02-07T02:53:48.244Z,5.40
2019-02-07T02:56:17.987Z,5.40
2019-02-07T02:58:47.341Z,6.27
2019-02-07T03:01:25.890Z,5.77
2019-02-07T03:04:14.280Z,6.30
2019-02-07T03:07:11.837Z,5.37
2019-02-07T03:09:58.800Z,5.47
2019-02-07T03:12:41.372Z,6.33
2019-02-07T03:15:33.943Z,4.90
2019-02-07T03:18:36.486Z,4.90
2019-02-07T03:21:23.348Z,5.50
2019-02-07T03:24:10.948Z,5.27
2019-02-07T03:27:04.355Z,6.10
2019-02-07T03:30:01.825Z,6.83
2019-02-07T03:32:56.044Z,7.80
2019-02-07T03:35:32.590Z,6.70
2019-02-07T03:38:23.990Z,6.40
2019-02-07T03:41:10.936Z,5.90
2019-02-07T03:44:17.486Z,6.20
2019-02-07T03:47:04.641Z,5.47
2019-02-07T03:49:51.448Z,6.00
2019-02-07T03:52:31.428Z,6.30
2019-02-07T03:55:29.530Z,6.33
2019-02-07T03:58:23.810Z,6.50
2019-02-07T04:01:10.714Z,6.30
2019-02-07T04:04:14.442Z,6.43
2019-02-07T04:06:59.531Z,5.63
2019-02-07T04:09:39.211Z,6.57
2019-02-07T04:12:27.693Z,6.50
2019-02-07T04:15:21.714Z,6.57
2019-02-07T04:18:10.019Z,6.40
2019-02-07T04:21:10.077Z,6.17
2019-02-07T04:23:56.809Z,5.70
2019-02-07T04:26:54.258Z,6.00
2019-02-07T04:29:41.381Z,6.60
2019-02-07T04:32:41.773Z,5.87
2019-02-07T04:35:32.085Z,5.83
2019-02-07T04:38:12.988Z,6.43
2019-02-07T04:41:00.319Z,6.40
2019-02-07T04:43:51.434Z,6.70
2019-02-07T04:46:40.979Z,7.30
2019-02-07T04:49:29.434Z,6.43
2019-02-07T04:52:21.340Z,6.07
2019-02-07T04:55:12.719Z,7.27
2019-02-07T04:58:04.302Z,7.97
2019-02-07T05:00:51.279Z,7.63
2019-02-07T05:03:40.769Z,7.23
2019-02-07T05:06:19.634Z,7.57
2019-02-07T05:09:06.387Z,7.10
2019-02-07T05:11:53.226Z,8.03
2019-02-07T05:14:44.448Z,7.47
2019-02-07T05:17:22.274Z,8.00
2019-02-07T05:20:09.546Z,7.67
2019-02-07T05:23:13.243Z,8.27
2019-02-07T05:25:57.218Z,7.07
2019-02-07T05:28:45.649Z,9.47
2019-02-07T05:31:34.216Z,8.47
2019-02-07T05:34:28.495Z,8.50
2019-02-07T05:37:15.495Z,9.00
2019-02-07T05:40:06.682Z,9.63
2019-02-07T05:42:55.073Z,9.23
2019-02-07T05:45:43.498Z,9.30
2019-02-07T05:48:32.179Z,8.40
2019-02-07T05:51:12.485Z,8.60
2019-02-07T05:54:14.110Z,8.10
2019-02-07T05:57:11.515Z,7.83
2019-02-07T06:00:11.708Z,7.50
2019-02-07T06:03:00.037Z,7.70
2019-02-07T06:05:40.194Z,8.37
2019-02-07T06:08:31.609Z,8.73
2019-02-07T06:11:22.876Z,8.40
2019-02-07T06:14:14.218Z,7.73
2019-02-07T06:17:08.777Z,8.93
2019-02-07T06:19:46.168Z,8.13
2019-02-07T06:22:53.112Z,7.30
2019-02-07T06:25:40.297Z,7.40
2019-02-07T06:28:27.148Z,7.33
2019-02-07T06:31:08.752Z,8.37
2019-02-07T06:34:01.162Z,7.23
2019-02-07T06:36:48.688Z,7.87
2019-02-07T06:39:35.796Z,8.10
2019-02-07T06:42:34.566Z,7.97
2019-02-07T06:45:22.013Z,8.20
2019-02-07T06:47:59.473Z,9.47
2019-02-07T06:50:56.791Z,9.60
2019-02-07T06:53:58.820Z,8.77
2019-02-07T06:56:39.518Z,8.97
2019-02-07T06:59:26.295Z,7.33
2019-02-07T07:02:13.307Z,8.87
2019-02-07T07:04:51.066Z,9.67
2019-02-07T07:07:42.517Z,10.07
2019-02-07T07:10:30.929Z,9.17
2019-02-07T07:13:18.627Z,10.50
2019-02-07T07:16:06.990Z,7.70
2019-02-07T07:18:55.402Z,8.17
2019-02-07T07:21:49.648Z,7.87
2019-02-07T07:24:37.940Z,7.70
2019-02-07T07:27:24.921Z,8.90
2019-02-07T07:30:05.857Z,10.87
2019-02-07T07:32:57.528Z,9.37
2019-02-07T07:35:54.565Z,9.40
2019-02-07T07:38:42.974Z,8.83
2019-02-07T07:41:30.174Z,9.27
2019-02-07T07:44:09.085Z,8.87
2019-02-07T07:46:56.102Z,8.93
2019-02-07T07:49:34.495Z,7.27
2019-02-07T07:52:29.474Z,10.40
2019-02-07T07:55:20.735Z,9.17
2019-02-07T07:58:12.468Z,9.37
2019-02-07T08:00:59.539Z,8.70
2019-02-07T08:03:44.157Z,8.83
2019-02-07T08:06:31.636Z,10.07
2019-02-07T08:09:28.835Z,9.73
2019-02-07T08:12:14.795Z,10.07
2019-02-07T08:15:01.606Z,12.20
2019-02-07T08:17:47.676Z,10.23
2019-02-07T08:20:35.020Z,11.43
2019-02-07T08:23:14.957Z,10.20
2019-02-07T08:26:09.187Z,9.00
2019-02-07T08:28:54.114Z,9.63
2019-02-07T08:31:32.940Z,11.47
2019-02-07T08:34:24.869Z,10.57
2019-02-07T08:37:28.462Z,11.27
2019-02-07T08:40:31.967Z,11.93
2019-02-07T08:43:26.303Z,13.47
2019-02-07T08:46:20.954Z,12.63
2019-02-07T08:49:09.357Z,13.70
2019-02-07T08:51:57.783Z,11.57
2019-02-07T08:54:44.763Z,11.73
2019-02-07T08:57:23.482Z,15.33
2019-02-07T09:00:14.895Z,12.87
2019-02-07T09:03:15.517Z,10.40
2019-02-07T09:05:54.253Z,9.87
2019-02-07T09:08:48.477Z,9.33
2019-02-07T09:11:35.883Z,10.20
2019-02-07T09:14:13.789Z,11.40
2019-02-07T09:17:07.955Z,9.53
2019-02-07T09:19:58.864Z,10.60
2019-02-07T09:22:50.110Z,9.97
2019-02-07T09:25:56.467Z,9.23
2019-02-07T09:28:50.955Z,10.77
2019-02-07T09:31:38.088Z,10.73
2019-02-07T09:34:25.647Z,10.87
2019-02-07T09:37:25.725Z,10.53
2019-02-07T09:40:13.298Z,9.60
2019-02-07T09:42:57.093Z,9.57
2019-02-07T09:45:47.904Z,10.77
2019-02-07T09:48:41.815Z,10.93
2019-02-07T09:51:29.104Z,10.43
2019-02-07T09:54:23.405Z,9.37
2019-02-07T09:57:14.853Z,9.97
2019-02-07T10:00:08.789Z,8.70
2019-02-07T10:02:45.412Z,8.87
2019-02-07T10:05:39.825Z,9.80
2019-02-07T10:08:27.009Z,8.07
2019-02-07T10:11:20.913Z,8.00
2019-02-07T10:14:07.881Z,9.00
2019-02-07T10:17:04.833Z,8.93
2019-02-07T10:19:52.230Z,8.30
2019-02-07T10:22:39.024Z,8.73
2019-02-07T10:25:27.866Z,8.30
2019-02-07T10:28:16.171Z,10.60
2019-02-07T10:31:10.298Z,9.63
2019-02-07T10:34:04.307Z,8.93
2019-02-07T10:36:51.632Z,8.40
2019-02-07T10:39:42.099Z,8.23
2019-02-07T10:42:24.545Z,8.60
2019-02-07T10:45:10.197Z,7.40
2019-02-07T10:48:04.614Z,8.83
2019-02-07T10:50:46.990Z,7.77
2019-02-07T10:53:40.894Z,7.63
2019-02-07T10:56:38.589Z,8.73
2019-02-07T10:59:42.730Z,8.07
2019-02-07T11:02:29.993Z,7.97
2019-02-07T11:05:17.412Z,8.93
2019-02-07T11:07:57.760Z,8.43
2019-02-07T11:10:54.020Z,8.07
2019-02-07T11:13:41.041Z,7.90
2019-02-07T11:16:41.872Z,8.97
2019-02-07T11:19:30.164Z,9.97
2019-02-07T11:22:24.603Z,9.33
2019-02-07T11:25:12.986Z,9.73
2019-02-07T11:28:10.722Z,10.23
2019-02-07T11:30:56.821Z,10.13
2019-02-07T11:34:00.355Z,9.50
2019-02-07T11:36:54.954Z,11.60
2019-02-07T11:39:49.107Z,10.83
2019-02-07T11:42:31.588Z,11.90
2019-02-07T11:45:18.840Z,10.73
2019-02-07T11:48:07.155Z,11.60
2019-02-07T11:50:58.166Z,11.73
2019-02-07T11:53:52.519Z,12.37
2019-02-07T11:56:55.999Z,12.13
2019-02-07T11:59:36.099Z,12.70
2019-02-07T12:02:17.465Z,12.37
2019-02-07T12:05:10.296Z,14.80
2019-02-07T12:08:16.601Z,15.60
2019-02-07T12:11:16.996Z,13.07
2019-02-07T12:13:56.574Z,11.90
2019-02-07T12:16:59.781Z,12.03
2019-02-07T12:19:54.289Z,11.33
2019-02-07T12:22:30.365Z,11.60
2019-02-07T12:25:18.850Z,12.20
2019-02-07T12:28:00.067Z,11.97
2019-02-07T12:30:47.295Z,11.20
2019-02-07T12:33:34.354Z,12.73
2019-02-07T12:36:30.759Z,11.37
2019-02-07T12:39:18.083Z,11.37
2019-02-07T12:42:00.726Z,11.57
2019-02-07T12:44:50.662Z,9.83
2019-02-07T12:47:51.096Z,10.53
2019-02-07T12:50:39.040Z,10.67
2019-02-07T12:53:29.977Z,10.90
2019-02-07T12:56:16.955Z,11.37
2019-02-07T12:59:05.185Z,11.77
2019-02-07T13:01:53.844Z,12.23
2019-02-07T13:04:49.663Z,11.97
2019-02-07T13:07:44.090Z,11.50
2019-02-07T13:10:34.266Z,13.63
2019-02-07T13:13:26.152Z,13.60
2019-02-07T13:16:17.119Z,12.50
2019-02-07T13:19:03.190Z,12.77
2019-02-07T13:21:54.976Z,13.27
2019-02-07T13:24:48.693Z,11.73
2019-02-07T13:27:37.142Z,11.73
2019-02-07T13:30:51.694Z,12.90
2019-02-07T13:33:55.621Z,11.63
2019-02-07T13:36:39.599Z,10.97
2019-02-07T13:39:27.676Z,14.13
2019-02-07T13:42:28.445Z,14.83
2019-02-07T13:45:21.202Z,13.63
2019-02-07T13:48:24.399Z,13.27
2019-02-07T13:51:10.816Z,11.17
2019-02-07T13:53:59.620Z,11.93
2019-02-07T13:56:46.793Z,10.73
2019-02-07T13:59:38.823Z,10.73
2019-02-07T14:02:27.949Z,11.23
2019-02-07T14:05:28.512Z,11.53
2019-02-07T14:08:13.186Z,10.67
2019-02-07T14:10:56.997Z,10.10
2019-02-07T14:13:43.913Z,13.20
2019-02-07T14:16:30.933Z,12.43
2019-02-07T14:19:28.851Z,12.00
2019-02-07T14:22:17.240Z,11.90
2019-02-07T14:25:23.460Z,10.37
2019-02-07T14:28:20.610Z,12.20
2019-02-07T14:31:18.069Z,10.57
2019-02-07T14:34:05.057Z,12.53
2019-02-07T14:36:56.237Z,13.80
2019-02-07T14:39:50.568Z,13.90
2019-02-07T14:42:32.378Z,16.87
2019-02-07T14:45:24.086Z,12.73
2019-02-07T14:47:53.772Z,14.77
2019-02-07T14:50:24.578Z,12.87
2019-02-07T14:52:54.515Z,17.97
2019-02-07T14:55:24.257Z,13.30
2019-02-07T14:57:53.935Z,12.77
2019-02-07T15:00:25.435Z,15.80
2019-02-07T15:02:54.807Z,22.13
2019-02-07T15:05:24.295Z,14.30
2019-02-07T15:07:53.799Z,14.13
2019-02-07T15:10:23.590Z,20.13
2019-02-07T15:12:52.976Z,19.40
2019-02-07T15:15:22.545Z,17.27
2019-02-07T15:17:52.024Z,12.73
2019-02-07T15:20:26.136Z,13.20
2019-02-07T15:22:52.825Z,11.83
2019-02-07T15:25:22.343Z,14.67
2019-02-07T15:27:51.700Z,16.67
2019-02-07T15:30:21.425Z,17.03
2019-02-07T15:32:50.914Z,16.13
2019-02-07T15:35:24.001Z,16.87
2019-02-07T15:37:53.443Z,19.53
2019-02-07T15:40:25.593Z,16.53
2019-02-07T15:42:55.254Z,19.37
2019-02-07T15:45:24.894Z,16.47
2019-02-07T15:47:54.256Z,16.70
2019-02-07T15:50:24.513Z,16.57
2019-02-07T15:52:56.513Z,45.37
2019-02-07T15:55:26.185Z,20.40
2019-02-07T15:57:55.662Z,18.73
2019-02-07T16:00:49.331Z,20.60
2019-02-07T16:03:41.083Z,19.47
2019-02-07T16:06:10.483Z,19.50
2019-02-07T16:08:39.957Z,17.60
2019-02-07T16:11:09.408Z,17.80
2019-02-07T16:13:39.020Z,20.40
2019-02-07T16:16:08.534Z,20.00
2019-02-07T16:18:38.031Z,18.97
2019-02-07T16:21:07.759Z,19.27
2019-02-07T16:23:37.131Z,18.93
2019-02-07T16:26:06.504Z,19.13
2019-02-07T16:28:36.032Z,20.80
2019-02-07T16:31:06.416Z,23.60
2019-02-07T16:33:35.901Z,19.87
2019-02-07T16:36:06.340Z,21.83
2019-02-07T16:38:35.797Z,21.43
2019-02-07T16:41:05.646Z,23.30
2019-02-07T16:43:35.060Z,20.00
2019-02-07T16:46:05.049Z,20.77
2019-02-07T16:48:34.434Z,19.93
2019-02-07T16:51:04.495Z,25.43
2019-02-07T16:53:33.977Z,24.93
2019-02-07T16:56:03.831Z,21.93
2019-02-07T16:58:33.238Z,27.80
2019-02-07T17:01:02.754Z,23.10
2019-02-07T17:03:32.241Z,29.33
2019-02-07T17:06:01.880Z,23.27
2019-02-07T17:08:31.312Z,24.63
2019-02-07T17:11:01.172Z,22.47
2019-02-07T17:13:31.072Z,22.70
2019-02-07T17:16:00.725Z,22.93
2019-02-07T17:18:30.111Z,22.93
2019-02-07T17:20:59.552Z,23.17
2019-02-07T17:23:29.530Z,23.87
2019-02-07T17:25:59.066Z,27.33
2019-02-07T17:28:28.695Z,26.53
2019-02-07T17:30:58.155Z,25.30
2019-02-07T17:33:27.533Z,29.37
2019-02-07T17:35:57.129Z,20.60
2019-02-07T17:38:28.074Z,22.57
2019-02-07T17:40:57.551Z,20.23
2019-02-07T17:43:27.043Z,22.33
2019-02-07T17:45:56.443Z,24.00
2019-02-07T17:48:26.036Z,19.77
2019-02-07T17:50:55.550Z,24.73
2019-02-07T17:53:24.934Z,20.60
2019-02-07T17:55:54.497Z,18.97
2019-02-07T17:58:24.204Z,19.43
2019-02-07T18:01:00.224Z,19.87
2019-02-07T18:03:32.582Z,21.63
2019-02-07T18:06:02.095Z,20.83
2019-02-07T18:08:31.760Z,20.93
2019-02-07T18:11:01.204Z,20.63
2019-02-07T18:13:30.938Z,21.40
2019-02-07T18:16:00.437Z,20.30
2019-02-07T18:18:29.880Z,22.50
2019-02-07T18:20:59.276Z,21.67
2019-02-07T18:23:29.133Z,21.03
2019-02-07T18:25:58.676Z,23.53
2019-02-07T18:28:28.066Z,21.27
2019-02-07T18:30:57.447Z,21.60
2019-02-07T18:33:27.508Z,24.60
2019-02-07T18:35:58.430Z,25.33
2019-02-07T18:38:28.071Z,22.27
2019-02-07T18:40:57.654Z,20.60
2019-02-07T18:43:27.117Z,21.20
2019-02-07T18:45:56.594Z,20.43
2019-02-07T18:48:26.021Z,21.37
2019-02-07T18:50:55.395Z,23.40
2019-02-07T18:53:25.246Z,25.60
2019-02-07T18:55:56.601Z,23.03
2019-02-07T18:58:26.089Z,20.20
2019-02-07T19:00:55.481Z,22.63
2019-02-07T19:03:26.253Z,26.43
2019-02-07T19:05:55.742Z,22.43
2019-02-07T19:08:25.289Z,23.67
2019-02-07T19:10:55.016Z,23.13
2019-02-07T19:13:24.498Z,24.23
2019-02-07T19:15:58.120Z,22.90
2019-02-07T19:18:27.696Z,27.00
2019-02-07T19:20:57.198Z,23.53
2019-02-07T19:23:26.702Z,21.07
2019-02-07T19:25:56.288Z,20.37
2019-02-07T19:28:25.789Z,19.73
2019-02-07T19:30:55.264Z,21.20
2019-02-07T19:33:24.681Z,31.67
2019-02-07T19:35:54.072Z,23.43
2019-02-07T19:38:23.715Z,21.83
2019-02-07T19:40:53.233Z,18.57
2019-02-07T19:43:22.649Z,19.47
2019-02-07T19:45:52.057Z,17.67
2019-02-07T19:48:21.573Z,19.40
2019-02-07T19:50:51.077Z,15.60
2019-02-07T19:53:20.832Z,17.90
2019-02-07T19:55:50.364Z,16.23
2019-02-07T19:58:19.874Z,13.07
2019-02-07T20:00:49.461Z,13.33
2019-02-07T20:03:19.087Z,13.27
2019-02-07T20:05:48.639Z,12.60
2019-02-07T20:08:18.709Z,12.37
2019-02-07T20:10:48.123Z,13.03
2019-02-07T20:13:17.614Z,13.67
2019-02-07T20:15:47.181Z,12.37
2019-02-07T20:18:16.611Z,12.33
2019-02-07T20:20:46.121Z,11.03
2019-02-07T20:23:15.617Z,11.73
2019-02-07T20:25:45.372Z,11.13
2019-02-07T20:28:14.737Z,12.47
2019-02-07T20:30:44.574Z,11.50
2019-02-07T20:33:14.095Z,12.33
2019-02-07T20:35:44.048Z,11.67
2019-02-07T20:38:13.675Z,11.50
2019-02-07T20:40:43.497Z,11.33
2019-02-07T20:43:12.989Z,11.30
2019-02-07T20:45:42.376Z,10.90
2019-02-07T20:48:11.917Z,11.70
2019-02-07T20:50:41.383Z,11.20
2019-02-07T20:53:11.231Z,11.97
2019-02-07T20:55:40.678Z,12.90
2019-02-07T20:58:10.408Z,12.00
2019-02-07T21:00:40.213Z,13.17
2019-02-07T21:03:10.031Z,12.90
2019-02-07T21:05:39.746Z,12.03
2019-02-07T21:08:09.334Z,12.93
2019-02-07T21:10:38.992Z,12.33
2019-02-07T21:13:08.754Z,13.53
2019-02-07T21:15:38.155Z,11.57
2019-02-07T21:18:07.795Z,11.73
2019-02-07T21:20:37.402Z,11.37
2019-02-07T21:23:07.276Z,12.67
2019-02-07T21:25:40.186Z,12.60
2019-02-07T21:28:10.055Z,12.43
2019-02-07T21:30:39.411Z,11.77
2019-02-07T21:33:08.918Z,11.73
2019-02-07T21:35:38.371Z,9.83
2019-02-07T21:38:08.257Z,12.43
2019-02-07T21:40:37.684Z,12.43
2019-02-07T21:43:07.415Z,12.13
2019-02-07T21:45:37.098Z,12.07
2019-02-07T21:48:09.591Z,13.30
2019-02-07T21:50:39.111Z,13.07
2019-02-07T21:53:08.602Z,12.47
2019-02-07T21:55:38.568Z,12.07
2019-02-07T21:58:08.675Z,12.53
2019-02-07T22:00:43.362Z,12.47
2019-02-07T22:03:14.546Z,10.83
2019-02-07T22:05:44.270Z,11.33
2019-02-07T22:08:13.989Z,11.10
2019-02-07T22:10:43.561Z,10.43
2019-02-07T22:13:13.402Z,11.63
2019-02-07T22:15:42.885Z,10.27
2019-02-07T22:18:12.470Z,10.73
2019-02-07T22:20:41.961Z,10.40
2019-02-07T22:23:11.373Z,9.83
2019-02-07T22:25:40.749Z,9.73
2019-02-07T22:28:11.203Z,10.20
2019-02-07T22:30:40.826Z,12.10
2019-02-07T22:33:10.321Z,10.77
2019-02-07T22:35:39.683Z,11.73
2019-02-07T22:38:09.686Z,11.80
2019-02-07T22:40:39.152Z,12.23
2019-02-07T22:43:08.911Z,12.43
2019-02-07T22:45:38.415Z,11.13
2019-02-07T22:48:08.228Z,11.77
2019-02-07T22:50:37.594Z,13.33
2019-02-07T22:53:07.214Z,10.67
2019-02-07T22:55:36.697Z,10.40
2019-02-07T22:58:08.188Z,9.90
2019-02-07T23:01:28.278Z,10.77
2019-02-07T23:04:03.437Z,13.07
2019-02-07T23:06:33.210Z,10.33
2019-02-07T23:09:02.593Z,10.17
2019-02-07T23:11:31.991Z,9.73
2019-02-07T23:14:01.491Z,9.53
2019-02-07T23:16:31.253Z,10.63
2019-02-07T23:19:00.963Z,10.10
2019-02-07T23:21:30.719Z,9.27
2019-02-07T23:24:00.361Z,9.33
2019-02-07T23:26:29.832Z,10.20
2019-02-07T23:28:59.356Z,9.33
2019-02-07T23:31:29.115Z,9.97
2019-02-07T23:33:58.507Z,9.20
2019-02-07T23:36:28.115Z,9.67
2019-02-07T23:38:57.580Z,10.40
2019-02-07T23:41:27.048Z,10.07
2019-02-07T23:43:56.474Z,11.83
2019-02-07T23:46:26.221Z,9.70
2019-02-07T23:48:55.722Z,10.27
2019-02-07T23:51:25.310Z,9.87
2019-02-07T23:53:54.686Z,12.33
2019-02-07T23:56:24.065Z,12.27
2019-02-07T23:58:53.606Z,12.60
